sensor_id;sensor_type;location;lat;lon;timestamp;pressure;altitude;pressure_sealevel;temperature;humidity
3590;BME280;1809;48.470;9.226;2023-08-21T00:01:01;152357.47;;;22.60;100.00
3590;BME280;1809;48.470;9.226;2023-08-21T00:03:26;151997.97;;;22.58;100.00
3590;BME280;1809;48.470;9.226;2023-08-21T00:05:52;151989.28;;;22.54;100.00
3590;BME280;1809;48.470;9.226;2023-08-21T00:08:17;152346.22;;;22.55;100.00
3590;BME280;1809;48.470;9.226;2023-08-21T00:10:43;151978.06;;;22.49;100.00
3590;BME280;1809;48.470;9.226;2023-08-21T00:13:08;151969.31;;;22.46;100.00
3590;BME280;1809;48.470;9.226;2023-08-21T00:15:33;151963.09;;;22.43;100.00
3590;BME280;1809;48.470;9.226;2023-08-21T00:17:59;153016.31;;;22.39;100.00
3590;BME280;1809;48.470;9.226;2023-08-21T00:20:26;153368.31;;;22.38;100.00
3590;BME280;1809;48.470;9.226;2023-08-21T00:22:51;153385.88;;;22.45;100.00
3590;BME280;1809;48.470;9.226;2023-08-21T00:25:16;153375.84;;;22.41;100.00
3590;BME280;1809;48.470;9.226;2023-08-21T00:27:42;153720.25;;;22.37;100.00
3590;BME280;1809;48.470;9.226;2023-08-21T00:30:07;154059.63;;;22.31;100.00
3590;BME280;1809;48.470;9.226;2023-08-21T00:32:33;154763.59;;;22.29;100.00
3590;BME280;1809;48.470;9.226;2023-08-21T00:34:58;155472.81;;;22.29;100.00
3590;BME280;1809;48.470;9.226;2023-08-21T00:37:24;155822.38;;;22.27;100.00
3590;BME280;1809;48.470;9.226;2023-08-21T00:39:49;156159.09;;;22.20;100.00
3590;BME280;1809;48.470;9.226;2023-08-21T00:42:14;156169.34;;;22.24;100.00
3590;BME280;1809;48.470;9.226;2023-08-21T00:44:40;156152.69;;;22.18;100.00
3590;BME280;1809;48.470;9.226;2023-08-21T00:47:05;156146.31;;;22.15;100.00
3590;BME280;1809;48.470;9.226;2023-08-21T00:49:31;156503.53;;;22.16;100.00
3590;BME280;1809;48.470;9.226;2023-08-21T00:51:56;156854.31;;;22.15;100.00
3590;BME280;1809;48.470;9.226;2023-08-21T00:54:22;156842.75;;;22.10;100.00
3590;BME280;1809;48.470;9.226;2023-08-21T00:56:48;157207.72;;;22.14;100.00
3590;BME280;1809;48.470;9.226;2023-08-21T00:59:13;156842.75;;;22.10;100.00
3590;BME280;1809;48.470;9.226;2023-08-21T01:01:40;156827.31;;;22.04;100.00
3590;BME280;1809;48.470;9.226;2023-08-21T01:04:06;157166.47;;;21.98;100.00
3590;BME280;1809;48.470;9.226;2023-08-21T01:06:31;157497.78;;;21.89;100.00
3590;BME280;1809;48.470;9.226;2023-08-21T01:09:12;158551.34;;;21.85;100.00
3590;BME280;1809;48.470;9.226;2023-08-21T01:12:05;159599.84;;;21.79;100.00
3590;BME280;1809;48.470;9.226;2023-08-21T01:17:12;160302.97;;;21.75;100.00
3590;BME280;1809;48.470;9.226;2023-08-21T01:19:45;160309.56;;;21.78;100.00
3590;BME280;1809;48.470;9.226;2023-08-21T01:22:11;160291.09;;;21.71;100.00
3590;BME280;1809;48.470;9.226;2023-08-21T01:24:37;160308.22;;;21.77;100.00
3590;BME280;1809;48.470;9.226;2023-08-21T01:27:02;160302.97;;;21.75;100.00
3590;BME280;1809;48.470;9.226;2023-08-21T01:29:28;160299.00;;;21.74;100.00
3590;BME280;1809;48.470;9.226;2023-08-21T01:34:26;160304.31;;;21.76;100.00
3590;BME280;1809;48.470;9.226;2023-08-21T01:36:53;160289.78;;;21.70;100.00
3590;BME280;1809;48.470;9.226;2023-08-21T01:39:20;160284.53;;;21.68;100.00
3590;BME280;1809;48.470;9.226;2023-08-21T01:41:45;160272.72;;;21.64;100.00
3590;BME280;1809;48.470;9.226;2023-08-21T01:44:10;160272.72;;;21.64;100.00
3590;BME280;1809;48.470;9.226;2023-08-21T01:46:36;160288.50;;;21.70;100.00
3590;BME280;1809;48.470;9.226;2023-08-21T01:49:01;160283.22;;;21.68;100.00
3590;BME280;1809;48.470;9.226;2023-08-21T01:51:26;160262.16;;;21.60;100.00
3590;BME280;1809;48.470;9.226;2023-08-21T01:53:52;160248.97;;;21.55;100.00
3590;BME280;1809;48.470;9.226;2023-08-21T01:56:17;160246.34;;;21.54;100.00
3590;BME280;1809;48.470;9.226;2023-08-21T01:58:42;160246.34;;;21.54;100.00
3590;BME280;1809;48.470;9.226;2023-08-21T02:01:07;160241.06;;;21.52;100.00
3590;BME280;1809;48.470;9.226;2023-08-21T02:03:33;160230.56;;;21.48;100.00
3590;BME280;1809;48.470;9.226;2023-08-21T02:05:58;160217.34;;;21.42;100.00
3590;BME280;1809;48.470;9.226;2023-08-21T02:08:30;160222.66;;;21.44;100.00
3590;BME280;1809;48.470;9.226;2023-08-21T02:10:55;160214.75;;;21.41;100.00
3590;BME280;1809;48.470;9.226;2023-08-21T02:13:21;160193.66;;;21.33;100.00
3590;BME280;1809;48.470;9.226;2023-08-21T02:15:46;160195.00;;;21.34;100.00
3590;BME280;1809;48.470;9.226;2023-08-21T02:18:11;160184.44;;;21.30;100.00
3590;BME280;1809;48.470;9.226;2023-08-21T02:20:37;160177.88;;;21.27;100.00
3590;BME280;1809;48.470;9.226;2023-08-21T02:23:02;160183.16;;;21.29;100.00
3590;BME280;1809;48.470;9.226;2023-08-21T02:25:29;160168.66;;;21.24;100.00
3590;BME280;1809;48.470;9.226;2023-08-21T02:27:55;160163.41;;;21.22;100.00
3590;BME280;1809;48.470;9.226;2023-08-21T02:30:20;160180.50;;;21.28;100.00
3590;BME280;1809;48.470;9.226;2023-08-21T02:32:45;160169.97;;;21.24;100.00
3590;BME280;1809;48.470;9.226;2023-08-21T02:35:11;160176.53;;;21.27;100.00
3590;BME280;1809;48.470;9.226;2023-08-21T02:37:36;160179.19;;;21.28;100.00
3590;BME280;1809;48.470;9.226;2023-08-21T02:40:05;160175.28;;;21.26;100.00
3590;BME280;1809;48.470;9.226;2023-08-21T02:42:33;160152.84;;;21.18;100.00
3590;BME280;1809;48.470;9.226;2023-08-21T02:44:58;160147.59;;;21.16;100.00
3590;BME280;1809;48.470;9.226;2023-08-21T02:47:23;160135.72;;;21.11;100.00
3590;BME280;1809;48.470;9.226;2023-08-21T02:49:49;160141.03;;;21.13;100.00
3590;BME280;1809;48.470;9.226;2023-08-21T02:52:14;160127.78;;;21.08;100.00
3590;BME280;1809;48.470;9.226;2023-08-21T02:54:39;160130.47;;;21.09;100.00
3590;BME280;1809;48.470;9.226;2023-08-21T02:57:05;160114.63;;;21.03;100.00
3590;BME280;1809;48.470;9.226;2023-08-21T02:59:30;160101.50;;;20.98;100.00
3590;BME280;1809;48.470;9.226;2023-08-21T03:01:55;160101.50;;;20.98;100.00
3590;BME280;1809;48.470;9.226;2023-08-21T03:04:21;160104.09;;;20.99;100.00
3590;BME280;1809;48.470;9.226;2023-08-21T03:06:46;160106.75;;;21.00;100.00
3590;BME280;1809;48.470;9.226;2023-08-21T03:09:11;160096.19;;;20.96;100.00
3590;BME280;1809;48.470;9.226;2023-08-21T03:11:37;160126.50;;;21.08;100.00
3590;BME280;1809;48.470;9.226;2023-08-21T03:14:02;160104.09;;;20.99;100.00
3590;BME280;1809;48.470;9.226;2023-08-21T03:16:27;160101.50;;;20.98;100.00
3590;BME280;1809;48.470;9.226;2023-08-21T03:18:57;160106.75;;;21.00;100.00
3590;BME280;1809;48.470;9.226;2023-08-21T03:21:23;160113.31;;;21.03;100.00
3590;BME280;1809;48.470;9.226;2023-08-21T03:23:57;160089.63;;;20.93;100.00
3590;BME280;1809;48.470;9.226;2023-08-21T03:26:23;160077.81;;;20.89;100.00
3590;BME280;1809;48.470;9.226;2023-08-21T03:28:48;160071.19;;;20.86;100.00
3590;BME280;1809;48.470;9.226;2023-08-21T03:31:14;160064.59;;;20.84;100.00
3590;BME280;1809;48.470;9.226;2023-08-21T03:33:39;160067.25;;;20.85;100.00
3590;BME280;1809;48.470;9.226;2023-08-21T03:36:05;160056.72;;;20.81;100.00
3590;BME280;1809;48.470;9.226;2023-08-21T03:38:30;160054.06;;;20.80;100.00
3590;BME280;1809;48.470;9.226;2023-08-21T03:40:56;160051.47;;;20.79;100.00
3590;BME280;1809;48.470;9.226;2023-08-21T03:43:21;160052.78;;;20.79;100.00
3590;BME280;1809;48.470;9.226;2023-08-21T03:45:46;160048.81;;;20.78;100.00
3590;BME280;1809;48.470;9.226;2023-08-21T03:48:11;160035.69;;;20.73;100.00
3590;BME280;1809;48.470;9.226;2023-08-21T03:50:38;160037.00;;;20.73;100.00
3590;BME280;1809;48.470;9.226;2023-08-21T03:53:04;160030.38;;;20.71;100.00
3590;BME280;1809;48.470;9.226;2023-08-21T03:55:29;160060.69;;;20.82;100.00
3590;BME280;1809;48.470;9.226;2023-08-21T03:57:54;160025.13;;;20.69;100.00
3590;BME280;1809;48.470;9.226;2023-08-21T04:00:19;160012.00;;;20.64;100.00
3590;BME280;1809;48.470;9.226;2023-08-21T04:02:45;159998.81;;;20.59;100.00
3590;BME280;1809;48.470;9.226;2023-08-21T04:05:10;159988.31;;;20.55;100.00
3590;BME280;1809;48.470;9.226;2023-08-21T04:07:36;159988.31;;;20.55;100.00
3590;BME280;1809;48.470;9.226;2023-08-21T04:10:02;159977.78;;;20.51;100.00
3590;BME280;1809;48.470;9.226;2023-08-21T04:12:27;159983.00;;;20.53;100.00
3590;BME280;1809;48.470;9.226;2023-08-21T04:14:54;159979.09;;;20.51;100.00
3590;BME280;1809;48.470;9.226;2023-08-21T04:17:22;159972.47;;;20.49;100.00
3590;BME280;1809;48.470;9.226;2023-08-21T04:19:48;159971.19;;;20.48;100.00
3590;BME280;1809;48.470;9.226;2023-08-21T04:22:13;159972.47;;;20.49;100.00
3590;BME280;1809;48.470;9.226;2023-08-21T04:24:40;159959.31;;;20.44;100.00
3590;BME280;1809;48.470;9.226;2023-08-21T04:27:06;159967.22;;;20.47;100.00
3590;BME280;1809;48.470;9.226;2023-08-21T04:29:31;159967.22;;;20.47;100.00
3590;BME280;1809;48.470;9.226;2023-08-21T04:31:56;159967.22;;;20.47;100.00
3590;BME280;1809;48.470;9.226;2023-08-21T04:34:21;159980.41;;;20.52;100.00
3590;BME280;1809;48.470;9.226;2023-08-21T04:36:47;159983.00;;;20.53;100.00
3590;BME280;1809;48.470;9.226;2023-08-21T04:39:12;159990.91;;;20.56;100.00
3590;BME280;1809;48.470;9.226;2023-08-21T04:41:39;159997.47;;;20.58;100.00
3590;BME280;1809;48.470;9.226;2023-08-21T04:44:05;159994.88;;;20.57;100.00
3590;BME280;1809;48.470;9.226;2023-08-21T04:46:30;159992.22;;;20.56;100.00
3590;BME280;1809;48.470;9.226;2023-08-21T04:48:55;159994.88;;;20.57;100.00
3590;BME280;1809;48.470;9.226;2023-08-21T04:51:21;160005.38;;;20.61;100.00
3590;BME280;1809;48.470;9.226;2023-08-21T04:53:46;160017.25;;;20.66;100.00
3590;BME280;1809;48.470;9.226;2023-08-21T04:56:11;160022.47;;;20.68;100.00
3590;BME280;1809;48.470;9.226;2023-08-21T04:58:37;160033.03;;;20.72;100.00
3590;BME280;1809;48.470;9.226;2023-08-21T05:01:04;160063.28;;;20.83;100.00
3590;BME280;1809;48.470;9.226;2023-08-21T05:03:29;160073.81;;;20.87;100.00
3590;BME280;1809;48.470;9.226;2023-08-21T05:05:55;160093.59;;;20.95;100.00
3590;BME280;1809;48.470;9.226;2023-08-21T05:08:23;160118.63;;;21.05;100.00
3590;BME280;1809;48.470;9.226;2023-08-21T05:10:48;160133.13;;;21.10;100.00
3590;BME280;1809;48.470;9.226;2023-08-21T05:13:13;160148.94;;;21.16;100.00
3590;BME280;1809;48.470;9.226;2023-08-21T05:15:42;160169.97;;;21.24;100.00
3590;BME280;1809;48.470;9.226;2023-08-21T05:18:07;160195.00;;;21.34;100.00
3590;BME280;1809;48.470;9.226;2023-08-21T05:20:33;160243.72;;;21.53;100.00
3590;BME280;1809;48.470;9.226;2023-08-21T05:22:58;160256.84;;;21.58;100.00
3590;BME280;1809;48.470;9.226;2023-08-21T05:25:24;160285.84;;;21.69;100.00
3590;BME280;1809;48.470;9.226;2023-08-21T05:27:49;160380.72;;;22.05;100.00
3590;BME280;1809;48.470;9.226;2023-08-21T05:30:14;160559.94;;;22.74;100.00
3590;BME280;1809;48.470;9.226;2023-08-21T05:32:40;152637.41;;;23.73;100.00
3590;BME280;1809;48.470;9.226;2023-08-21T05:35:05;122419.38;;;24.72;100.00
3590;BME280;1809;48.470;9.226;2023-08-21T05:37:33;84311.41;;;25.67;100.00
3590;BME280;1809;48.470;9.226;2023-08-21T05:39:58;790.69;;;26.59;100.00
3590;BME280;1809;48.470;9.226;2023-08-21T05:42:23;-16926.41;;;27.27;100.00
3590;BME280;1809;48.470;9.226;2023-08-21T05:44:49;-16940.59;;;27.78;100.00
3590;BME280;1809;48.470;9.226;2023-08-21T05:47:14;-16956.72;;;28.37;100.00
3590;BME280;1809;48.470;9.226;2023-08-21T05:49:39;-16969.53;;;28.83;100.00
3590;BME280;1809;48.470;9.226;2023-08-21T05:52:05;-16983.97;;;29.36;100.00
3590;BME280;1809;48.470;9.226;2023-08-21T05:54:30;-17000.38;;;29.96;100.00
3590;BME280;1809;48.470;9.226;2023-08-21T05:56:56;-17009.25;;;30.28;100.00
3590;BME280;1809;48.470;9.226;2023-08-21T05:59:30;-17020.94;;;30.70;100.00
3590;BME280;1809;48.470;9.226;2023-08-21T06:01:56;-17028.28;;;30.97;100.00
3590;BME280;1809;48.470;9.226;2023-08-21T06:04:21;-17022.59;;;30.76;100.00
3590;BME280;1809;48.470;9.226;2023-08-21T06:06:46;-17026.63;;;30.91;100.00
3590;BME280;1809;48.470;9.226;2023-08-21T06:09:12;-16995.94;;;29.79;100.00
3590;BME280;1809;48.470;9.226;2023-08-21T06:11:37;-16987.19;;;29.48;100.00
3590;BME280;1809;48.470;9.226;2023-08-21T06:14:04;-17025.50;;;30.87;100.00
3590;BME280;1809;48.470;9.226;2023-08-21T06:16:29;-17043.41;;;31.52;100.00
3590;BME280;1809;48.470;9.226;2023-08-21T06:18:54;-17056.75;;;32.01;100.00
3590;BME280;1809;48.470;9.226;2023-08-21T06:21:20;-17071.03;;;32.53;100.00
3590;BME280;1809;48.470;9.226;2023-08-21T06:23:45;-17080.88;;;32.88;100.00
3590;BME280;1809;48.470;9.226;2023-08-21T06:26:10;-17086.69;;;33.10;100.00
3590;BME280;1809;48.470;9.226;2023-08-21T06:28:36;-17093.91;;;33.36;100.00
3590;BME280;1809;48.470;9.226;2023-08-21T06:31:01;-17074.34;;;32.65;100.00
3590;BME280;1809;48.470;9.226;2023-08-21T06:33:32;-17062.84;;;32.23;100.00
3590;BME280;1809;48.470;9.226;2023-08-21T06:35:58;-17081.41;;;32.90;100.00
3590;BME280;1809;48.470;9.226;2023-08-21T06:38:23;-17056.75;;;32.01;100.00
3590;BME280;1809;48.470;9.226;2023-08-21T06:40:49;-17071.31;;;32.54;100.00
3590;BME280;1809;48.470;9.226;2023-08-21T06:43:14;-17079.47;;;32.83;100.00
3590;BME280;1809;48.470;9.226;2023-08-21T06:45:40;-17064.91;;;32.30;100.00
3590;BME280;1809;48.470;9.226;2023-08-21T06:48:06;-17074.75;;;32.66;100.00
3590;BME280;1809;48.470;9.226;2023-08-21T06:50:31;-17083.34;;;32.97;100.00
3590;BME280;1809;48.470;9.226;2023-08-21T06:52:57;-17089.06;;;33.18;100.00
3590;BME280;1809;48.470;9.226;2023-08-21T06:55:22;-17100.00;;;33.58;100.00
3590;BME280;1809;48.470;9.226;2023-08-21T06:57:47;-17116.06;;;34.17;100.00
3590;BME280;1809;48.470;9.226;2023-08-21T07:00:13;-17099.03;;;33.54;100.00
3590;BME280;1809;48.470;9.226;2023-08-21T07:02:38;-17071.03;;;32.53;100.00
3590;BME280;1809;48.470;9.226;2023-08-21T07:05:04;-17061.72;;;32.19;100.00
3590;BME280;1809;48.470;9.226;2023-08-21T07:07:29;-17083.09;;;32.96;100.00
3590;BME280;1809;48.470;9.226;2023-08-21T07:09:54;-17109.13;;;33.91;100.00
3590;BME280;1809;48.470;9.226;2023-08-21T07:12:22;-17094.44;;;33.38;100.00
3590;BME280;1809;48.470;9.226;2023-08-21T07:14:47;-17088.06;;;33.15;100.00
3590;BME280;1809;48.470;9.226;2023-08-21T07:17:12;-17106.78;;;33.83;100.00
3590;BME280;1809;48.470;9.226;2023-08-21T07:19:38;-17100.28;;;33.59;100.00
3590;BME280;1809;48.470;9.226;2023-08-21T07:22:03;-17084.88;;;33.03;100.00
3590;BME280;1809;48.470;9.226;2023-08-21T07:24:28;-17082.53;;;32.94;100.00
3590;BME280;1809;48.470;9.226;2023-08-21T07:26:54;-17081.28;;;32.90;100.00
3590;BME280;1809;48.470;9.226;2023-08-21T07:29:19;-17055.34;;;31.95;100.00
3590;BME280;1809;48.470;9.226;2023-08-21T07:31:44;-17056.88;;;32.01;100.00
3590;BME280;1809;48.470;9.226;2023-08-21T07:34:10;-17038.16;;;31.33;100.00
3590;BME280;1809;48.470;9.226;2023-08-21T07:36:35;-17033.97;;;31.18;100.00
3590;BME280;1809;48.470;9.226;2023-08-21T07:39:00;-17019.25;;;30.64;100.00
3590;BME280;1809;48.470;9.226;2023-08-21T07:41:26;-17007.59;;;30.22;100.00
3590;BME280;1809;48.470;9.226;2023-08-21T07:43:51;-16992.72;;;29.68;100.00
3590;BME280;1809;48.470;9.226;2023-08-21T07:46:16;-16992.03;;;29.65;100.00
3590;BME280;1809;48.470;9.226;2023-08-21T07:48:44;-16977.88;;;29.14;100.00
3590;BME280;1809;48.470;9.226;2023-08-21T07:51:10;-16988.44;;;29.52;100.00
3590;BME280;1809;48.470;9.226;2023-08-21T07:53:36;-16984.69;;;29.39;100.00
3590;BME280;1809;48.470;9.226;2023-08-21T07:56:02;-16984.13;;;29.37;100.00
3590;BME280;1809;48.470;9.226;2023-08-21T07:58:29;-16983.56;;;29.34;100.00
3590;BME280;1809;48.470;9.226;2023-08-21T08:00:54;-16982.03;;;29.29;100.00
3590;BME280;1809;48.470;9.226;2023-08-21T08:03:20;-16972.59;;;28.95;100.00
3590;BME280;1809;48.470;9.226;2023-08-21T08:05:45;-16977.03;;;29.11;100.00
3590;BME280;1809;48.470;9.226;2023-08-21T08:08:11;-16980.78;;;29.24;100.00
3590;BME280;1809;48.470;9.226;2023-08-21T08:10:40;-16982.03;;;29.29;100.00
3590;BME280;1809;48.470;9.226;2023-08-21T08:13:06;-16987.72;;;29.50;100.00
3590;BME280;1809;48.470;9.226;2023-08-21T08:15:32;-16991.63;;;29.64;100.00
3590;BME280;1809;48.470;9.226;2023-08-21T08:18:00;-16980.22;;;29.22;100.00
3590;BME280;1809;48.470;9.226;2023-08-21T08:20:25;-16981.47;;;29.27;100.00
3590;BME280;1809;48.470;9.226;2023-08-21T08:22:50;-16983.97;;;29.36;100.00
3590;BME280;1809;48.470;9.226;2023-08-21T08:25:16;-16988.44;;;29.52;100.00
3590;BME280;1809;48.470;9.226;2023-08-21T08:27:42;-16983.69;;;29.35;100.00
3590;BME280;1809;48.470;9.226;2023-08-21T08:30:08;-16985.66;;;29.42;100.00
3590;BME280;1809;48.470;9.226;2023-08-21T08:32:34;-16990.38;;;29.59;100.00
3590;BME280;1809;48.470;9.226;2023-08-21T08:34:59;-16995.09;;;29.76;100.00
3590;BME280;1809;48.470;9.226;2023-08-21T08:37:24;-16994.25;;;29.73;100.00
3590;BME280;1809;48.470;9.226;2023-08-21T08:39:50;-16994.81;;;29.75;100.00
3590;BME280;1809;48.470;9.226;2023-08-21T08:42:15;-16984.13;;;29.37;100.00
3590;BME280;1809;48.470;9.226;2023-08-21T08:44:42;-16997.31;;;29.84;100.00
3590;BME280;1809;48.470;9.226;2023-08-21T08:47:09;-16996.78;;;29.82;100.00
3590;BME280;1809;48.470;9.226;2023-08-21T08:49:35;-16992.19;;;29.66;100.00
3590;BME280;1809;48.470;9.226;2023-08-21T08:52:01;-16997.59;;;29.85;100.00
3590;BME280;1809;48.470;9.226;2023-08-21T08:54:27;-16992.59;;;29.67;100.00
3590;BME280;1809;48.470;9.226;2023-08-21T08:56:54;-16994.53;;;29.74;100.00
3590;BME280;1809;48.470;9.226;2023-08-21T08:59:19;-17002.03;;;30.02;100.00
3590;BME280;1809;48.470;9.226;2023-08-21T09:01:45;-17001.22;;;29.99;100.00
3590;BME280;1809;48.470;9.226;2023-08-21T09:04:11;-16998.72;;;29.90;100.00
3590;BME280;1809;48.470;9.226;2023-08-21T09:06:37;-16998.84;;;29.90;100.00
3590;BME280;1809;48.470;9.226;2023-08-21T09:09:03;-17005.78;;;30.15;100.00
3590;BME280;1809;48.470;9.226;2023-08-21T09:11:28;-17004.97;;;30.12;100.00
3590;BME280;1809;48.470;9.226;2023-08-21T09:13:54;-17007.03;;;30.20;100.00
3590;BME280;1809;48.470;9.226;2023-08-21T09:16:21;-17015.94;;;30.52;100.00
3590;BME280;1809;48.470;9.226;2023-08-21T09:18:51;-17013.72;;;30.44;100.00
3590;BME280;1809;48.470;9.226;2023-08-21T09:21:18;-17019.81;;;30.66;100.00
3590;BME280;1809;48.470;9.226;2023-08-21T09:23:44;-17018.72;;;30.62;100.00
3590;BME280;1809;48.470;9.226;2023-08-21T09:26:11;-17018.72;;;30.62;100.00
3590;BME280;1809;48.470;9.226;2023-08-21T09:28:43;-17016.50;;;30.54;100.00
3590;BME280;1809;48.470;9.226;2023-08-21T09:31:08;-17017.19;;;30.57;100.00
3590;BME280;1809;48.470;9.226;2023-08-21T09:33:33;-17015.94;;;30.52;100.00
3590;BME280;1809;48.470;9.226;2023-08-21T09:35:59;-17018.72;;;30.62;100.00
3590;BME280;1809;48.470;9.226;2023-08-21T09:38:26;-17023.56;;;30.80;100.00
3590;BME280;1809;48.470;9.226;2023-08-21T09:40:53;-17026.63;;;30.91;100.00
3590;BME280;1809;48.470;9.226;2023-08-21T09:43:20;-17031.22;;;31.08;100.00
3590;BME280;1809;48.470;9.226;2023-08-21T09:45:47;-17027.59;;;30.95;100.00
3590;BME280;1809;48.470;9.226;2023-08-21T09:48:13;-17028.56;;;30.98;100.00
3590;BME280;1809;48.470;9.226;2023-08-21T09:50:39;-17032.47;;;31.12;100.00
3590;BME280;1809;48.470;9.226;2023-08-21T09:53:08;-17028.56;;;30.98;100.00
3590;BME280;1809;48.470;9.226;2023-08-21T09:55:34;-17031.75;;;31.10;100.00
3590;BME280;1809;48.470;9.226;2023-08-21T09:58:00;-17030.09;;;31.04;100.00
3590;BME280;1809;48.470;9.226;2023-08-21T10:00:34;-17025.94;;;30.88;100.00
3590;BME280;1809;48.470;9.226;2023-08-21T10:03:09;-17039.25;;;31.37;100.00
3590;BME280;1809;48.470;9.226;2023-08-21T10:05:38;-17042.03;;;31.47;100.00
3590;BME280;1809;48.470;9.226;2023-08-21T10:08:05;-17046.34;;;31.63;100.00
3590;BME280;1809;48.470;9.226;2023-08-21T10:10:33;-17033.84;;;31.17;100.00
3590;BME280;1809;48.470;9.226;2023-08-21T10:12:59;-17038.69;;;31.35;100.00
3590;BME280;1809;48.470;9.226;2023-08-21T10:15:25;-17041.34;;;31.44;100.00
3590;BME280;1809;48.470;9.226;2023-08-21T10:17:52;-17048.97;;;31.72;100.00
3590;BME280;1809;48.470;9.226;2023-08-21T10:20:21;-17044.94;;;31.58;100.00
3590;BME280;1809;48.470;9.226;2023-08-21T10:22:52;-17050.63;;;31.78;100.00
3590;BME280;1809;48.470;9.226;2023-08-21T10:25:22;-17053.97;;;31.90;100.00
3590;BME280;1809;48.470;9.226;2023-08-21T10:27:53;-17059.25;;;32.10;100.00
3590;BME280;1809;48.470;9.226;2023-08-21T10:30:26;-17056.75;;;32.01;100.00
3590;BME280;1809;48.470;9.226;2023-08-21T10:32:53;-17053.00;;;31.87;100.00
3590;BME280;1809;48.470;9.226;2023-08-21T10:35:24;-17058.81;;;32.08;100.00
3590;BME280;1809;48.470;9.226;2023-08-21T10:38:12;-17058.41;;;32.07;100.00
3590;BME280;1809;48.470;9.226;2023-08-21T10:41:03;-17058.28;;;32.06;100.00
3590;BME280;1809;48.470;9.226;2023-08-21T10:46:02;-17062.56;;;32.22;100.00
3590;BME280;1809;48.470;9.226;2023-08-21T10:48:27;-17062.44;;;32.21;100.00
3590;BME280;1809;48.470;9.226;2023-08-21T10:50:53;-17066.16;;;32.35;100.00
3590;BME280;1809;48.470;9.226;2023-08-21T10:53:19;-17071.03;;;32.53;100.00
3590;BME280;1809;48.470;9.226;2023-08-21T10:55:52;-17074.22;;;32.64;100.00
3590;BME280;1809;48.470;9.226;2023-08-21T10:58:18;-17070.47;;;32.51;100.00
3590;BME280;1809;48.470;9.226;2023-08-21T11:00:43;-17066.44;;;32.36;100.00
3590;BME280;1809;48.470;9.226;2023-08-21T11:03:09;-17081.56;;;32.91;100.00
3590;BME280;1809;48.470;9.226;2023-08-21T11:05:35;-17084.19;;;33.00;100.00
3590;BME280;1809;48.470;9.226;2023-08-21T11:08:00;-17080.59;;;32.87;100.00
3590;BME280;1809;48.470;9.226;2023-08-21T11:10:29;-17076.44;;;32.72;100.00
3590;BME280;1809;48.470;9.226;2023-08-21T11:12:56;-17076.16;;;32.71;100.00
3590;BME280;1809;48.470;9.226;2023-08-21T11:15:22;-17075.88;;;32.70;100.00
3590;BME280;1809;48.470;9.226;2023-08-21T11:18:06;-17074.22;;;32.64;100.00
3590;BME280;1809;48.470;9.226;2023-08-21T11:20:33;-17078.94;;;32.81;100.00
3590;BME280;1809;48.470;9.226;2023-08-21T11:23:00;-17080.88;;;32.88;100.00
3590;BME280;1809;48.470;9.226;2023-08-21T11:25:28;-17086.00;;;33.07;100.00
3590;BME280;1809;48.470;9.226;2023-08-21T11:27:54;-17088.63;;;33.17;100.00
3590;BME280;1809;48.470;9.226;2023-08-21T11:30:22;-17095.84;;;33.43;100.00
3590;BME280;1809;48.470;9.226;2023-08-21T11:32:47;-17095.84;;;33.43;100.00
3590;BME280;1809;48.470;9.226;2023-08-21T11:35:13;-17095.84;;;33.43;100.00
3590;BME280;1809;48.470;9.226;2023-08-21T11:37:43;-17089.19;;;33.19;100.00
3590;BME280;1809;48.470;9.226;2023-08-21T11:40:13;-17083.91;;;32.99;100.00
3590;BME280;1809;48.470;9.226;2023-08-21T11:42:39;-17079.34;;;32.83;100.00
3590;BME280;1809;48.470;9.226;2023-08-21T11:45:05;-17082.81;;;32.95;100.00
3590;BME280;1809;48.470;9.226;2023-08-21T11:47:31;-17089.06;;;33.18;100.00
3590;BME280;1809;48.470;9.226;2023-08-21T11:50:02;-17090.84;;;33.25;100.00
3590;BME280;1809;48.470;9.226;2023-08-21T11:52:29;-17091.97;;;33.29;100.00
3590;BME280;1809;48.470;9.226;2023-08-21T11:54:56;-17088.91;;;33.18;100.00
3590;BME280;1809;48.470;9.226;2023-08-21T11:57:22;-17081.69;;;32.91;100.00
3590;BME280;1809;48.470;9.226;2023-08-21T11:59:54;-17087.66;;;33.13;100.00
3590;BME280;1809;48.470;9.226;2023-08-21T12:02:29;-17090.28;;;33.23;100.00
3590;BME280;1809;48.470;9.226;2023-08-21T12:05:03;-17090.72;;;33.24;100.00
3590;BME280;1809;48.470;9.226;2023-08-21T12:07:30;-17092.22;;;33.30;100.00
3590;BME280;1809;48.470;9.226;2023-08-21T12:09:55;-17086.13;;;33.08;100.00
3590;BME280;1809;48.470;9.226;2023-08-21T12:12:21;-17082.53;;;32.94;100.00
3590;BME280;1809;48.470;9.226;2023-08-21T12:14:46;-17089.19;;;33.19;100.00
3590;BME280;1809;48.470;9.226;2023-08-21T12:17:11;-17095.84;;;33.43;100.00
3590;BME280;1809;48.470;9.226;2023-08-21T12:19:37;-17098.31;;;33.52;100.00
3590;BME280;1809;48.470;9.226;2023-08-21T12:22:03;-17096.38;;;33.45;100.00
3590;BME280;1809;48.470;9.226;2023-08-21T12:24:28;-17096.25;;;33.44;100.00
3590;BME280;1809;48.470;9.226;2023-08-21T12:26:54;-17089.88;;;33.21;100.00
3590;BME280;1809;48.470;9.226;2023-08-21T12:29:19;-17083.91;;;32.99;100.00
3590;BME280;1809;48.470;9.226;2023-08-21T12:31:44;-17091.97;;;33.29;100.00
3590;BME280;1809;48.470;9.226;2023-08-21T12:34:10;-17088.78;;;33.17;100.00
3590;BME280;1809;48.470;9.226;2023-08-21T12:36:35;-17087.53;;;33.13;100.00
3590;BME280;1809;48.470;9.226;2023-08-21T12:39:04;-17090.84;;;33.25;100.00
3590;BME280;1809;48.470;9.226;2023-08-21T12:41:31;-17088.34;;;33.16;100.00
3590;BME280;1809;48.470;9.226;2023-08-21T12:43:58;-17092.22;;;33.30;100.00
3590;BME280;1809;48.470;9.226;2023-08-21T12:46:23;-17094.19;;;33.37;100.00
3590;BME280;1809;48.470;9.226;2023-08-21T12:48:49;-17103.31;;;33.70;100.00
3590;BME280;1809;48.470;9.226;2023-08-21T12:51:14;-17109.69;;;33.93;100.00
3590;BME280;1809;48.470;9.226;2023-08-21T12:53:39;-17113.56;;;34.08;100.00
3590;BME280;1809;48.470;9.226;2023-08-21T12:56:05;-17115.38;;;34.14;100.00
3590;BME280;1809;48.470;9.226;2023-08-21T12:58:30;-17112.72;;;34.04;100.00
3590;BME280;1809;48.470;9.226;2023-08-21T13:00:55;-17111.75;;;34.01;100.00
3590;BME280;1809;48.470;9.226;2023-08-21T13:03:21;-17102.50;;;33.67;100.00